Accueil
METAR-TAF:

METAR-TAF

Aéroports :

Dortmund, Allemagne

Aéroport de Dortmund

latitude: 51-31N, longitude: 007-37E, altitude: 127 m

Observation

Le bulletin a été fait il y a 29 minutes, à 16:20 UTC
Vent 7 kt de est/nord-est
Température 21°C
Humidité 43%
Pression 1020 hPa
Visibilité 10 km ou plus
pas de nuages en-dessous de 1500 mètres et pas de cumulonimbus.

METAR: EDLW 221620Z 06007KT CAVOK 21/08 Q1020

Heure: 18:49 (16:49 UTC)

Prévision

Le bulletin a été fait il y a 5 heures et 49 minutes, à 11:00 UTC
Prévision valable du 22 à 12 UTC au 23 à 12 UTC
Vent 3 kt de direction variable
Visibilité 10 km ou plus
Quelques nuages à une hauteur de 4500 ft
Temporairement
du 22 à 12 UTC au 22 à 19 UTC
Vent 5 kt de nord-est
Evoluant progressivement
du 22 à 19 UTC au 22 à 22 UTC
Vent 5 kt de est/sud-est

TAF: EDLW 221100Z 2212/2312 VRB03KT 9999 FEW045 TEMPO 2212/2219 04005KT BECMG 2219/2222 11005KT

Observations et prévisions météorologiques de plus de 4000 aéroports (messages METAR et TAF).

Les stations disponibles sont représentées par des disques jaunes et rouges sur la carte.

Passer la souris dessus pour voir le nom de la station.

Cliquer dessus pour voir les observations et prévisions météorologiques.

Pour changer de carte: cliquez sur les boutons verts avec une croix noire pour zoomer, sur le bouton vert avec un tiret pour effectuer un zoom arrière, ou sur les flèches vertes pour les cartes adjacentes.


METAR-TAF: